ESDF/RNB METAR and TAF weather

Enter ICAO airport designator
Station Type Date Time Source
ESDF METAR 2019/12/11 15:20 UTC NOAA

ESDF 111520Z 20007KT 180V260 9000 -RA FEW003 BKN005 05/05 Q1006


Station Type Date Time Source
ESDF Decoded METAR 2019/12/11 15:20 UTC NOAA

Ronneby, Sweden (ESDF) 56-16N 015-17E 74M
Dec 11, 2019 - 10:20 AM EST / 2019.12.11 1520 UTC
Wind: from the SSW (200 degrees) at 8 MPH (7 KT) (direction variable):0
Visibility: 5 mile(s):0
Sky conditions: mostly cloudy
Weather: light rain
Temperature: 41 F (5 C)
Dew Point: 41 F (5 C)
Relative Humidity: 100%
Pressure (altimeter): 29.71 in. Hg (1006 hPa)
ob: ESDF 111520Z 20007KT 180V260 9000 -RA FEW003 BKN005 05/05 Q1006
cycle: 15

Station Type Date Time Source
ESDF TAF 2018/05/29 12:27 UTC NOAA

TAF TAF ESDF 291425Z 2912/2924 07008KT CAVOK
RMK MIL

Example: see airport list